Carlsborg, Washington
Current Conditions -  °F | °C
As of 7:53 PM on Thursday 20 Nov 2014 (Local Time) from KCLM Reporting Station
Overcast Overcast  
Wind Chill: 42°   Ceiling: 5500
Heat Index: 44°   Visibility: 9mi
Dew Point: 42°   Wind: 5mph
Humidity: 93%   Direction: 210°SSW
Pressure: 29.88"   Gusts: NA
Location:  48.09°N, 123.17°W
Report Text: KCLM 210353Z AUTO 21004KT 9SM OVC055 07/06 A2988 RMK AO2 SLP121 T00670056 $
Loading
Personal Weather Stations






























Interactive Weather Map New forecast layout! Learn more

10-Day Weather Forecast

Advertisements
Track Severe Weather on mobile